sensor_id;sensor_type;location;lat;lon;timestamp;P1;durP1;ratioP1;P2;durP2;ratioP2
32196;SDS011;18697;42.770;23.400;2022-09-30T00:00:58;7.90;;;3.00;;
32196;SDS011;18697;42.770;23.400;2022-09-30T00:03:24;4.13;;;2.53;;
32196;SDS011;18697;42.770;23.400;2022-09-30T00:05:59;5.50;;;3.20;;
32196;SDS011;18697;42.770;23.400;2022-09-30T00:08:26;9.15;;;3.03;;
32196;SDS011;18697;42.770;23.400;2022-09-30T00:10:58;4.03;;;2.80;;
32196;SDS011;18697;42.770;23.400;2022-09-30T00:13:32;3.13;;;2.83;;
32196;SDS011;18697;42.770;23.400;2022-09-30T00:15:59;3.63;;;3.05;;
32196;SDS011;18697;42.770;23.400;2022-09-30T00:18:25;6.00;;;2.50;;
32196;SDS011;18697;42.770;23.400;2022-09-30T00:20:52;6.13;;;2.70;;
32196;SDS011;18697;42.770;23.400;2022-09-30T00:23:18;5.72;;;2.70;;
32196;SDS011;18697;42.770;23.400;2022-09-30T00:25:47;3.70;;;2.28;;
32196;SDS011;18697;42.770;23.400;2022-09-30T00:28:12;3.45;;;2.60;;
32196;SDS011;18697;42.770;23.400;2022-09-30T00:30:39;6.53;;;2.50;;
32196;SDS011;18697;42.770;23.400;2022-09-30T00:33:05;3.28;;;2.65;;
32196;SDS011;18697;42.770;23.400;2022-09-30T00:35:31;4.47;;;2.35;;
32196;SDS011;18697;42.770;23.400;2022-09-30T00:37:56;5.50;;;2.60;;
32196;SDS011;18697;42.770;23.400;2022-09-30T00:40:22;4.90;;;2.40;;
32196;SDS011;18697;42.770;23.400;2022-09-30T00:42:47;4.85;;;2.95;;
32196;SDS011;18697;42.770;23.400;2022-09-30T00:45:13;5.47;;;2.67;;
32196;SDS011;18697;42.770;23.400;2022-09-30T00:47:49;3.28;;;2.45;;
32196;SDS011;18697;42.770;23.400;2022-09-30T00:50:41;6.13;;;2.53;;
32196;SDS011;18697;42.770;23.400;2022-09-30T00:53:13;4.57;;;3.42;;
32196;SDS011;18697;42.770;23.400;2022-09-30T01:01:03;7.47;;;3.03;;
32196;SDS011;18697;42.770;23.400;2022-09-30T01:03:34;3.65;;;2.65;;
32196;SDS011;18697;42.770;23.400;2022-09-30T01:06:02;4.07;;;2.63;;
32196;SDS011;18697;42.770;23.400;2022-09-30T01:08:29;2.70;;;2.30;;
32196;SDS011;18697;42.770;23.400;2022-09-30T01:10:57;2.78;;;2.58;;
32196;SDS011;18697;42.770;23.400;2022-09-30T01:13:23;7.03;;;2.60;;
32196;SDS011;18697;42.770;23.400;2022-09-30T01:18:51;4.47;;;2.95;;
32196;SDS011;18697;42.770;23.400;2022-09-30T01:31:01;2.45;;;2.25;;
32196;SDS011;18697;42.770;23.400;2022-09-30T01:33:32;2.90;;;2.57;;
32196;SDS011;18697;42.770;23.400;2022-09-30T01:40:11;4.00;;;2.42;;
32196;SDS011;18697;42.770;23.400;2022-09-30T01:42:19;4.07;;;2.22;;
32196;SDS011;18697;42.770;23.400;2022-09-30T01:47:33;2.83;;;2.30;;
32196;SDS011;18697;42.770;23.400;2022-09-30T01:50:19;3.85;;;2.30;;
32196;SDS011;18697;42.770;23.400;2022-09-30T01:55:38;8.10;;;2.85;;
32196;SDS011;18697;42.770;23.400;2022-09-30T01:58:13;6.07;;;2.83;;
32196;SDS011;18697;42.770;23.400;2022-09-30T02:00:47;3.40;;;3.10;;
32196;SDS011;18697;42.770;23.400;2022-09-30T02:03:21;3.42;;;3.00;;
32196;SDS011;18697;42.770;23.400;2022-09-30T02:08:38;3.00;;;2.75;;
32196;SDS011;18697;42.770;23.400;2022-09-30T02:11:13;4.05;;;3.03;;
32196;SDS011;18697;42.770;23.400;2022-09-30T02:16:15;2.97;;;2.65;;
32196;SDS011;18697;42.770;23.400;2022-09-30T02:18:44;3.10;;;2.70;;
32196;SDS011;18697;42.770;23.400;2022-09-30T02:21:21;5.43;;;3.03;;
32196;SDS011;18697;42.770;23.400;2022-09-30T02:23:52;8.93;;;4.38;;
32196;SDS011;18697;42.770;23.400;2022-09-30T02:26:25;5.07;;;3.55;;
32196;SDS011;18697;42.770;23.400;2022-09-30T02:28:55;4.53;;;3.42;;
32196;SDS011;18697;42.770;23.400;2022-09-30T02:31:28;4.72;;;3.15;;
32196;SDS011;18697;42.770;23.400;2022-09-30T02:34:03;4.97;;;3.42;;
32196;SDS011;18697;42.770;23.400;2022-09-30T02:39:10;8.73;;;4.47;;
32196;SDS011;18697;42.770;23.400;2022-09-30T02:41:42;5.68;;;4.32;;
32196;SDS011;18697;42.770;23.400;2022-09-30T02:44:11;6.18;;;3.97;;
32196;SDS011;18697;42.770;23.400;2022-09-30T02:49:39;10.57;;;3.42;;
32196;SDS011;18697;42.770;23.400;2022-09-30T02:52:14;6.90;;;4.00;;
32196;SDS011;18697;42.770;23.400;2022-09-30T02:58:02;5.03;;;3.70;;
32196;SDS011;18697;42.770;23.400;2022-09-30T03:00:35;12.38;;;4.78;;
32196;SDS011;18697;42.770;23.400;2022-09-30T03:03:11;5.45;;;3.72;;
32196;SDS011;18697;42.770;23.400;2022-09-30T03:05:43;6.50;;;3.47;;
32196;SDS011;18697;42.770;23.400;2022-09-30T03:08:09;5.30;;;3.92;;
32196;SDS011;18697;42.770;23.400;2022-09-30T03:10:35;7.65;;;3.83;;
32196;SDS011;18697;42.770;23.400;2022-09-30T03:21:26;5.13;;;3.40;;
32196;SDS011;18697;42.770;23.400;2022-09-30T03:29:25;8.77;;;5.07;;
32196;SDS011;18697;42.770;23.400;2022-09-30T03:42:27;18.38;;;7.97;;
32196;SDS011;18697;42.770;23.400;2022-09-30T03:44:56;19.02;;;9.15;;
32196;SDS011;18697;42.770;23.400;2022-09-30T03:47:30;16.77;;;9.38;;
32196;SDS011;18697;42.770;23.400;2022-09-30T03:50:00;19.05;;;11.32;;
32196;SDS011;18697;42.770;23.400;2022-09-30T03:52:29;24.88;;;13.02;;
32196;SDS011;18697;42.770;23.400;2022-09-30T03:54:58;21.17;;;13.43;;
32196;SDS011;18697;42.770;23.400;2022-09-30T03:57:26;21.85;;;13.52;;
32196;SDS011;18697;42.770;23.400;2022-09-30T03:59:53;19.27;;;8.98;;
32196;SDS011;18697;42.770;23.400;2022-09-30T04:02:19;34.28;;;12.38;;
32196;SDS011;18697;42.770;23.400;2022-09-30T04:04:45;21.55;;;10.90;;
32196;SDS011;18697;42.770;23.400;2022-09-30T04:07:10;17.98;;;10.15;;
32196;SDS011;18697;42.770;23.400;2022-09-30T04:09:36;13.57;;;6.47;;
32196;SDS011;18697;42.770;23.400;2022-09-30T04:12:05;17.55;;;9.57;;
32196;SDS011;18697;42.770;23.400;2022-09-30T04:14:31;21.75;;;10.05;;
32196;SDS011;18697;42.770;23.400;2022-09-30T04:16:57;14.18;;;9.10;;
32196;SDS011;18697;42.770;23.400;2022-09-30T04:19:23;19.45;;;10.18;;
32196;SDS011;18697;42.770;23.400;2022-09-30T04:21:52;15.18;;;8.57;;
32196;SDS011;18697;42.770;23.400;2022-09-30T04:24:21;19.58;;;9.38;;
32196;SDS011;18697;42.770;23.400;2022-09-30T04:26:48;14.48;;;9.23;;
32196;SDS011;18697;42.770;23.400;2022-09-30T04:29:14;15.98;;;8.82;;
32196;SDS011;18697;42.770;23.400;2022-09-30T04:31:40;18.73;;;10.38;;
32196;SDS011;18697;42.770;23.400;2022-09-30T04:34:06;21.40;;;11.68;;
32196;SDS011;18697;42.770;23.400;2022-09-30T04:36:32;19.75;;;11.80;;
32196;SDS011;18697;42.770;23.400;2022-09-30T04:38:57;16.92;;;9.25;;
32196;SDS011;18697;42.770;23.400;2022-09-30T04:41:23;15.75;;;8.82;;
32196;SDS011;18697;42.770;23.400;2022-09-30T04:43:49;12.93;;;8.10;;
32196;SDS011;18697;42.770;23.400;2022-09-30T04:46:15;17.80;;;8.02;;
32196;SDS011;18697;42.770;23.400;2022-09-30T04:48:42;10.82;;;6.70;;
32196;SDS011;18697;42.770;23.400;2022-09-30T04:51:10;13.82;;;8.05;;
32196;SDS011;18697;42.770;23.400;2022-09-30T04:53:37;12.18;;;8.02;;
32196;SDS011;18697;42.770;23.400;2022-09-30T04:56:03;14.35;;;7.80;;
32196;SDS011;18697;42.770;23.400;2022-09-30T04:58:28;12.02;;;7.32;;
32196;SDS011;18697;42.770;23.400;2022-09-30T05:01:03;13.20;;;7.38;;
32196;SDS011;18697;42.770;23.400;2022-09-30T05:03:31;14.63;;;7.30;;
32196;SDS011;18697;42.770;23.400;2022-09-30T05:05:56;10.27;;;6.80;;
32196;SDS011;18697;42.770;23.400;2022-09-30T05:08:22;14.95;;;8.50;;
32196;SDS011;18697;42.770;23.400;2022-09-30T05:10:57;17.40;;;8.65;;
32196;SDS011;18697;42.770;23.400;2022-09-30T05:13:25;12.15;;;7.00;;
32196;SDS011;18697;42.770;23.400;2022-09-30T05:15:54;13.15;;;6.80;;
32196;SDS011;18697;42.770;23.400;2022-09-30T05:18:20;11.75;;;7.05;;
32196;SDS011;18697;42.770;23.400;2022-09-30T05:20:49;19.00;;;10.55;;
32196;SDS011;18697;42.770;23.400;2022-09-30T05:23:15;17.83;;;9.90;;
32196;SDS011;18697;42.770;23.400;2022-09-30T05:25:42;17.50;;;10.02;;
32196;SDS011;18697;42.770;23.400;2022-09-30T05:28:07;25.10;;;16.15;;
32196;SDS011;18697;42.770;23.400;2022-09-30T05:32:58;11.15;;;8.30;;
32196;SDS011;18697;42.770;23.400;2022-09-30T05:35:23;19.92;;;9.50;;
32196;SDS011;18697;42.770;23.400;2022-09-30T05:37:49;32.47;;;20.35;;
32196;SDS011;18697;42.770;23.400;2022-09-30T05:40:14;30.95;;;20.98;;
32196;SDS011;18697;42.770;23.400;2022-09-30T05:42:40;35.95;;;22.73;;
32196;SDS011;18697;42.770;23.400;2022-09-30T05:45:06;34.03;;;20.42;;
32196;SDS011;18697;42.770;23.400;2022-09-30T05:47:32;20.05;;;13.02;;
32196;SDS011;18697;42.770;23.400;2022-09-30T05:49:58;29.85;;;17.50;;
32196;SDS011;18697;42.770;23.400;2022-09-30T05:52:23;21.63;;;10.55;;
32196;SDS011;18697;42.770;23.400;2022-09-30T05:54:49;36.30;;;22.30;;
32196;SDS011;18697;42.770;23.400;2022-09-30T05:57:15;36.72;;;23.77;;
32196;SDS011;18697;42.770;23.400;2022-09-30T05:59:41;32.17;;;20.77;;
32196;SDS011;18697;42.770;23.400;2022-09-30T06:02:07;17.35;;;10.05;;
32196;SDS011;18697;42.770;23.400;2022-09-30T06:04:35;36.42;;;23.35;;
32196;SDS011;18697;42.770;23.400;2022-09-30T06:07:01;37.28;;;23.92;;
32196;SDS011;18697;42.770;23.400;2022-09-30T06:09:26;28.27;;;18.00;;
32196;SDS011;18697;42.770;23.400;2022-09-30T06:11:52;36.00;;;23.67;;
32196;SDS011;18697;42.770;23.400;2022-09-30T06:14:19;36.08;;;22.15;;
32196;SDS011;18697;42.770;23.400;2022-09-30T06:16:46;21.85;;;15.93;;
32196;SDS011;18697;42.770;23.400;2022-09-30T06:19:12;24.95;;;17.98;;
32196;SDS011;18697;42.770;23.400;2022-09-30T06:21:38;27.67;;;18.05;;
32196;SDS011;18697;42.770;23.400;2022-09-30T06:24:04;35.88;;;12.70;;
32196;SDS011;18697;42.770;23.400;2022-09-30T06:26:29;25.58;;;16.48;;
32196;SDS011;18697;42.770;23.400;2022-09-30T06:28:54;25.92;;;15.73;;
32196;SDS011;18697;42.770;23.400;2022-09-30T06:31:20;33.03;;;11.80;;
32196;SDS011;18697;42.770;23.400;2022-09-30T06:33:46;18.38;;;13.80;;
32196;SDS011;18697;42.770;23.400;2022-09-30T06:36:11;20.15;;;12.68;;
32196;SDS011;18697;42.770;23.400;2022-09-30T06:38:36;26.90;;;14.00;;
32196;SDS011;18697;42.770;23.400;2022-09-30T06:41:04;21.58;;;14.18;;
32196;SDS011;18697;42.770;23.400;2022-09-30T06:43:30;19.00;;;13.15;;
32196;SDS011;18697;42.770;23.400;2022-09-30T06:45:55;22.70;;;13.38;;
32196;SDS011;18697;42.770;23.400;2022-09-30T06:48:21;20.52;;;12.93;;
32196;SDS011;18697;42.770;23.400;2022-09-30T06:50:47;21.50;;;13.45;;
32196;SDS011;18697;42.770;23.400;2022-09-30T06:53:13;22.17;;;13.18;;
32196;SDS011;18697;42.770;23.400;2022-09-30T06:55:38;28.88;;;15.40;;
32196;SDS011;18697;42.770;23.400;2022-09-30T06:58:05;33.13;;;18.20;;
32196;SDS011;18697;42.770;23.400;2022-09-30T07:00:32;27.65;;;18.23;;
32196;SDS011;18697;42.770;23.400;2022-09-30T07:02:58;33.17;;;21.35;;
32196;SDS011;18697;42.770;23.400;2022-09-30T07:05:23;31.63;;;17.58;;
32196;SDS011;18697;42.770;23.400;2022-09-30T07:07:50;25.10;;;15.60;;
32196;SDS011;18697;42.770;23.400;2022-09-30T07:10:16;24.30;;;15.65;;
32196;SDS011;18697;42.770;23.400;2022-09-30T07:12:42;25.13;;;14.45;;
32196;SDS011;18697;42.770;23.400;2022-09-30T07:15:07;25.05;;;15.38;;
32196;SDS011;18697;42.770;23.400;2022-09-30T07:17:33;22.05;;;16.70;;
32196;SDS011;18697;42.770;23.400;2022-09-30T07:19:58;29.60;;;18.08;;
32196;SDS011;18697;42.770;23.400;2022-09-30T07:22:24;26.00;;;16.00;;
32196;SDS011;18697;42.770;23.400;2022-09-30T07:24:57;28.88;;;16.90;;
32196;SDS011;18697;42.770;23.400;2022-09-30T07:27:27;36.42;;;18.55;;
32196;SDS011;18697;42.770;23.400;2022-09-30T07:29:55;33.22;;;21.05;;
32196;SDS011;18697;42.770;23.400;2022-09-30T07:32:20;37.88;;;23.35;;
32196;SDS011;18697;42.770;23.400;2022-09-30T07:34:46;35.97;;;24.33;;
32196;SDS011;18697;42.770;23.400;2022-09-30T07:37:12;41.63;;;27.08;;
32196;SDS011;18697;42.770;23.400;2022-09-30T07:39:40;36.08;;;23.15;;
32196;SDS011;18697;42.770;23.400;2022-09-30T07:42:06;46.35;;;29.13;;
32196;SDS011;18697;42.770;23.400;2022-09-30T07:44:32;45.78;;;30.65;;
32196;SDS011;18697;42.770;23.400;2022-09-30T07:46:58;42.33;;;28.95;;
32196;SDS011;18697;42.770;23.400;2022-09-30T07:49:25;46.95;;;30.48;;
32196;SDS011;18697;42.770;23.400;2022-09-30T07:51:53;48.25;;;31.35;;
32196;SDS011;18697;42.770;23.400;2022-09-30T07:54:21;48.38;;;30.52;;
32196;SDS011;18697;42.770;23.400;2022-09-30T07:56:48;41.15;;;27.05;;
32196;SDS011;18697;42.770;23.400;2022-09-30T07:59:15;35.92;;;22.52;;
32196;SDS011;18697;42.770;23.400;2022-09-30T08:01:40;41.83;;;27.70;;
32196;SDS011;18697;42.770;23.400;2022-09-30T08:04:07;42.85;;;27.27;;
32196;SDS011;18697;42.770;23.400;2022-09-30T08:06:38;43.63;;;27.52;;
32196;SDS011;18697;42.770;23.400;2022-09-30T08:09:06;42.15;;;27.48;;
32196;SDS011;18697;42.770;23.400;2022-09-30T08:11:33;41.58;;;26.70;;
32196;SDS011;18697;42.770;23.400;2022-09-30T08:13:59;37.65;;;23.60;;
32196;SDS011;18697;42.770;23.400;2022-09-30T08:16:24;41.13;;;29.13;;
32196;SDS011;18697;42.770;23.400;2022-09-30T08:18:54;47.00;;;31.73;;
32196;SDS011;18697;42.770;23.400;2022-09-30T08:21:21;46.35;;;32.03;;
32196;SDS011;18697;42.770;23.400;2022-09-30T08:23:47;45.53;;;30.23;;
32196;SDS011;18697;42.770;23.400;2022-09-30T08:26:12;39.88;;;27.33;;
32196;SDS011;18697;42.770;23.400;2022-09-30T08:28:39;41.88;;;28.02;;
32196;SDS011;18697;42.770;23.400;2022-09-30T08:31:17;30.05;;;19.92;;
32196;SDS011;18697;42.770;23.400;2022-09-30T08:33:44;37.67;;;25.00;;
32196;SDS011;18697;42.770;23.400;2022-09-30T08:38:37;35.17;;;23.88;;
32196;SDS011;18697;42.770;23.400;2022-09-30T08:49:29;27.20;;;17.98;;
32196;SDS011;18697;42.770;23.400;2022-09-30T08:51:58;19.73;;;13.55;;
32196;SDS011;18697;42.770;23.400;2022-09-30T08:54:33;27.63;;;18.35;;
32196;SDS011;18697;42.770;23.400;2022-09-30T08:56:59;29.88;;;21.00;;
32196;SDS011;18697;42.770;23.400;2022-09-30T08:59:31;51.38;;;34.92;;
32196;SDS011;18697;42.770;23.400;2022-09-30T09:05:09;18.38;;;14.32;;
32196;SDS011;18697;42.770;23.400;2022-09-30T09:18:45;13.77;;;7.93;;
32196;SDS011;18697;42.770;23.400;2022-09-30T09:23:59;18.30;;;11.38;;
32196;SDS011;18697;42.770;23.400;2022-09-30T09:26:28;11.60;;;8.30;;
32196;SDS011;18697;42.770;23.400;2022-09-30T09:30:00;8.30;;;5.15;;
32196;SDS011;18697;42.770;23.400;2022-09-30T09:32:12;16.55;;;11.38;;
32196;SDS011;18697;42.770;23.400;2022-09-30T09:34:41;9.27;;;6.30;;
32196;SDS011;18697;42.770;23.400;2022-09-30T09:45:05;29.75;;;19.75;;
32196;SDS011;18697;42.770;23.400;2022-09-30T09:48:00;12.40;;;6.55;;
32196;SDS011;18697;42.770;23.400;2022-09-30T09:50:41;11.27;;;7.60;;
32196;SDS011;18697;42.770;23.400;2022-09-30T09:53:50;21.38;;;13.63;;
32196;SDS011;18697;42.770;23.400;2022-09-30T09:56:18;9.07;;;6.72;;
32196;SDS011;18697;42.770;23.400;2022-09-30T10:01:35;9.27;;;6.97;;
32196;SDS011;18697;42.770;23.400;2022-09-30T10:04:21;12.50;;;9.73;;
32196;SDS011;18697;42.770;23.400;2022-09-30T10:09:23;14.25;;;8.68;;
32196;SDS011;18697;42.770;23.400;2022-09-30T10:11:49;9.13;;;5.68;;
32196;SDS011;18697;42.770;23.400;2022-09-30T10:14:16;8.32;;;5.68;;
32196;SDS011;18697;42.770;23.400;2022-09-30T10:16:44;9.18;;;5.40;;
32196;SDS011;18697;42.770;23.400;2022-09-30T10:19:20;12.50;;;6.10;;
32196;SDS011;18697;42.770;23.400;2022-09-30T10:21:49;9.23;;;6.43;;
32196;SDS011;18697;42.770;23.400;2022-09-30T10:24:26;4.65;;;4.18;;
32196;SDS011;18697;42.770;23.400;2022-09-30T10:26:55;10.32;;;5.07;;
32196;SDS011;18697;42.770;23.400;2022-09-30T10:29:23;8.55;;;5.75;;
32196;SDS011;18697;42.770;23.400;2022-09-30T10:32:01;7.47;;;4.13;;
32196;SDS011;18697;42.770;23.400;2022-09-30T10:37:01;11.05;;;6.70;;
32196;SDS011;18697;42.770;23.400;2022-09-30T10:39:37;3.53;;;3.22;;
32196;SDS011;18697;42.770;23.400;2022-09-30T10:42:05;4.72;;;3.28;;
32196;SDS011;18697;42.770;23.400;2022-09-30T10:44:57;8.40;;;4.70;;
32196;SDS011;18697;42.770;23.400;2022-09-30T10:47:28;10.65;;;2.92;;
32196;SDS011;18697;42.770;23.400;2022-09-30T10:57:46;5.82;;;3.45;;
32196;SDS011;18697;42.770;23.400;2022-09-30T11:00:13;4.70;;;2.97;;
32196;SDS011;18697;42.770;23.400;2022-09-30T11:05:45;4.57;;;2.03;;
32196;SDS011;18697;42.770;23.400;2022-09-30T11:13:24;4.45;;;2.08;;
32196;SDS011;18697;42.770;23.400;2022-09-30T11:16:02;4.63;;;2.72;;
32196;SDS011;18697;42.770;23.400;2022-09-30T11:23:49;2.88;;;1.85;;
32196;SDS011;18697;42.770;23.400;2022-09-30T11:29:26;6.68;;;2.00;;
32196;SDS011;18697;42.770;23.400;2022-09-30T11:32:10;4.78;;;1.80;;
32196;SDS011;18697;42.770;23.400;2022-09-30T11:38:06;3.72;;;2.13;;
32196;SDS011;18697;42.770;23.400;2022-09-30T11:40:51;6.43;;;1.58;;
32196;SDS011;18697;42.770;23.400;2022-09-30T11:52:04;2.05;;;1.50;;
32196;SDS011;18697;42.770;23.400;2022-09-30T11:57:31;7.50;;;2.05;;
32196;SDS011;18697;42.770;23.400;2022-09-30T12:00:03;1.25;;;1.15;;
32196;SDS011;18697;42.770;23.400;2022-09-30T12:02:38;1.63;;;0.98;;
32196;SDS011;18697;42.770;23.400;2022-09-30T12:05:10;4.97;;;1.25;;
32196;SDS011;18697;42.770;23.400;2022-09-30T12:07:42;3.83;;;1.55;;
32196;SDS011;18697;42.770;23.400;2022-09-30T12:10:22;4.82;;;1.10;;
32196;SDS011;18697;42.770;23.400;2022-09-30T12:13:02;3.13;;;1.30;;
32196;SDS011;18697;42.770;23.400;2022-09-30T12:15:34;1.77;;;1.10;;
32196;SDS011;18697;42.770;23.400;2022-09-30T12:18:02;3.03;;;1.20;;
32196;SDS011;18697;42.770;23.400;2022-09-30T12:20:38;3.08;;;1.40;;
32196;SDS011;18697;42.770;23.400;2022-09-30T12:26:09;2.88;;;1.08;;
32196;SDS011;18697;42.770;23.400;2022-09-30T12:39:23;2.63;;;1.10;;
32196;SDS011;18697;42.770;23.400;2022-09-30T12:48:07;1.88;;;0.90;;
32196;SDS011;18697;42.770;23.400;2022-09-30T12:51:10;1.25;;;0.93;;
32196;SDS011;18697;42.770;23.400;2022-09-30T12:53:30;2.65;;;0.90;;
32196;SDS011;18697;42.770;23.400;2022-09-30T12:56:03;3.00;;;1.25;;
32196;SDS011;18697;42.770;23.400;2022-09-30T12:58:44;1.30;;;1.17;;
32196;SDS011;18697;42.770;23.400;2022-09-30T13:03:43;3.90;;;1.02;;
32196;SDS011;18697;42.770;23.400;2022-09-30T13:06:15;1.65;;;1.02;;
32196;SDS011;18697;42.770;23.400;2022-09-30T13:08:47;2.67;;;0.93;;
32196;SDS011;18697;42.770;23.400;2022-09-30T13:11:33;3.30;;;1.13;;
32196;SDS011;18697;42.770;23.400;2022-09-30T13:19:42;1.88;;;1.23;;
32196;SDS011;18697;42.770;23.400;2022-09-30T13:32:43;4.05;;;1.30;;
32196;SDS011;18697;42.770;23.400;2022-09-30T13:35:29;2.58;;;1.35;;
32196;SDS011;18697;42.770;23.400;2022-09-30T13:40:43;1.48;;;1.10;;
32196;SDS011;18697;42.770;23.400;2022-09-30T13:43:14;1.40;;;0.95;;
32196;SDS011;18697;42.770;23.400;2022-09-30T13:45:53;2.35;;;0.90;;
32196;SDS011;18697;42.770;23.400;2022-09-30T13:48:43;1.38;;;1.27;;
32196;SDS011;18697;42.770;23.400;2022-09-30T13:51:12;4.20;;;2.55;;
32196;SDS011;18697;42.770;23.400;2022-09-30T13:53:44;2.03;;;0.93;;
32196;SDS011;18697;42.770;23.400;2022-09-30T13:56:19;3.35;;;1.27;;
32196;SDS011;18697;42.770;23.400;2022-09-30T13:58:56;3.83;;;0.90;;
32196;SDS011;18697;42.770;23.400;2022-09-30T14:24:13;4.10;;;3.08;;
32196;SDS011;18697;42.770;23.400;2022-09-30T14:35:23;1.08;;;0.82;;
32196;SDS011;18697;42.770;23.400;2022-09-30T14:40:27;2.13;;;1.48;;
32196;SDS011;18697;42.770;23.400;2022-09-30T14:42:58;26.45;;;19.30;;
32196;SDS011;18697;42.770;23.400;2022-09-30T14:45:27;6.18;;;4.82;;
32196;SDS011;18697;42.770;23.400;2022-09-30T14:47:56;2.40;;;1.08;;
32196;SDS011;18697;42.770;23.400;2022-09-30T14:50:34;2.13;;;1.13;;
32196;SDS011;18697;42.770;23.400;2022-09-30T14:53:04;20.42;;;13.52;;
32196;SDS011;18697;42.770;23.400;2022-09-30T14:55:31;17.02;;;9.77;;
32196;SDS011;18697;42.770;23.400;2022-09-30T14:58:18;7.22;;;4.50;;
32196;SDS011;18697;42.770;23.400;2022-09-30T15:00:55;2.90;;;2.60;;
32196;SDS011;18697;42.770;23.400;2022-09-30T15:03:39;3.78;;;3.35;;
32196;SDS011;18697;42.770;23.400;2022-09-30T15:06:15;5.80;;;5.25;;
32196;SDS011;18697;42.770;23.400;2022-09-30T15:08:43;4.53;;;2.97;;
32196;SDS011;18697;42.770;23.400;2022-09-30T15:11:08;2.38;;;2.17;;
32196;SDS011;18697;42.770;23.400;2022-09-30T15:13:45;4.03;;;3.00;;
32196;SDS011;18697;42.770;23.400;2022-09-30T15:16:22;2.70;;;2.40;;
32196;SDS011;18697;42.770;23.400;2022-09-30T15:18:51;2.95;;;2.28;;
32196;SDS011;18697;42.770;23.400;2022-09-30T15:21:18;3.95;;;2.55;;
32196;SDS011;18697;42.770;23.400;2022-09-30T15:23:52;4.18;;;3.08;;
32196;SDS011;18697;42.770;23.400;2022-09-30T15:26:21;3.65;;;2.80;;
32196;SDS011;18697;42.770;23.400;2022-09-30T15:28:48;2.30;;;1.75;;
32196;SDS011;18697;42.770;23.400;2022-09-30T15:31:21;4.60;;;3.35;;
32196;SDS011;18697;42.770;23.400;2022-09-30T15:36:46;6.65;;;2.92;;
32196;SDS011;18697;42.770;23.400;2022-09-30T15:39:20;5.88;;;3.60;;
32196;SDS011;18697;42.770;23.400;2022-09-30T15:41:48;4.82;;;3.15;;
32196;SDS011;18697;42.770;23.400;2022-09-30T15:44:16;3.92;;;3.40;;
32196;SDS011;18697;42.770;23.400;2022-09-30T15:46:59;6.38;;;3.80;;
32196;SDS011;18697;42.770;23.400;2022-09-30T15:49:43;3.17;;;2.35;;
32196;SDS011;18697;42.770;23.400;2022-09-30T15:54:52;6.18;;;3.70;;
32196;SDS011;18697;42.770;23.400;2022-09-30T16:00:35;4.43;;;1.70;;
32196;SDS011;18697;42.770;23.400;2022-09-30T16:05:37;3.58;;;2.38;;
32196;SDS011;18697;42.770;23.400;2022-09-30T16:08:06;20.15;;;3.55;;
32196;SDS011;18697;42.770;23.400;2022-09-30T16:10:33;9.20;;;2.42;;
32196;SDS011;18697;42.770;23.400;2022-09-30T16:13:02;4.03;;;3.17;;
32196;SDS011;18697;42.770;23.400;2022-09-30T16:15:30;6.43;;;3.30;;
32196;SDS011;18697;42.770;23.400;2022-09-30T16:18:02;7.40;;;3.67;;
32196;SDS011;18697;42.770;23.400;2022-09-30T16:20:28;6.82;;;3.88;;
32196;SDS011;18697;42.770;23.400;2022-09-30T16:22:54;6.65;;;3.90;;
32196;SDS011;18697;42.770;23.400;2022-09-30T16:25:27;7.20;;;4.25;;
32196;SDS011;18697;42.770;23.400;2022-09-30T16:30:22;7.53;;;2.17;;
32196;SDS011;18697;42.770;23.400;2022-09-30T16:32:49;5.57;;;3.63;;
32196;SDS011;18697;42.770;23.400;2022-09-30T16:35:18;10.65;;;3.95;;
32196;SDS011;18697;42.770;23.400;2022-09-30T16:37:48;8.73;;;4.57;;
32196;SDS011;18697;42.770;23.400;2022-09-30T16:40:19;7.35;;;4.00;;
32196;SDS011;18697;42.770;23.400;2022-09-30T16:42:48;11.25;;;4.07;;
32196;SDS011;18697;42.770;23.400;2022-09-30T16:45:14;21.83;;;7.07;;
32196;SDS011;18697;42.770;23.400;2022-09-30T16:47:40;17.67;;;5.55;;
32196;SDS011;18697;42.770;23.400;2022-09-30T16:52:41;13.63;;;5.78;;
32196;SDS011;18697;42.770;23.400;2022-09-30T16:55:06;9.18;;;4.90;;
32196;SDS011;18697;42.770;23.400;2022-09-30T16:57:32;13.07;;;6.10;;
32196;SDS011;18697;42.770;23.400;2022-09-30T16:59:57;10.43;;;5.50;;
32196;SDS011;18697;42.770;23.400;2022-09-30T17:02:23;10.82;;;6.00;;
32196;SDS011;18697;42.770;23.400;2022-09-30T17:04:48;13.18;;;5.85;;
32196;SDS011;18697;42.770;23.400;2022-09-30T17:07:14;14.82;;;5.85;;
32196;SDS011;18697;42.770;23.400;2022-09-30T17:09:39;14.40;;;6.15;;
32196;SDS011;18697;42.770;23.400;2022-09-30T17:12:06;15.95;;;6.60;;
32196;SDS011;18697;42.770;23.400;2022-09-30T17:14:32;14.43;;;7.95;;
32196;SDS011;18697;42.770;23.400;2022-09-30T17:16:57;14.90;;;7.15;;
32196;SDS011;18697;42.770;23.400;2022-09-30T17:19:23;12.48;;;7.53;;
32196;SDS011;18697;42.770;23.400;2022-09-30T17:21:48;7.82;;;3.38;;
32196;SDS011;18697;42.770;23.400;2022-09-30T17:24:14;14.18;;;6.28;;
32196;SDS011;18697;42.770;23.400;2022-09-30T17:26:39;12.13;;;5.60;;
32196;SDS011;18697;42.770;23.400;2022-09-30T17:29:05;9.75;;;5.13;;
32196;SDS011;18697;42.770;23.400;2022-09-30T17:31:31;9.13;;;4.85;;
32196;SDS011;18697;42.770;23.400;2022-09-30T17:33:56;7.82;;;4.63;;
32196;SDS011;18697;42.770;23.400;2022-09-30T17:36:22;12.93;;;4.57;;
32196;SDS011;18697;42.770;23.400;2022-09-30T17:38:51;6.78;;;2.95;;
32196;SDS011;18697;42.770;23.400;2022-09-30T17:41:17;7.10;;;4.25;;
32196;SDS011;18697;42.770;23.400;2022-09-30T17:44:01;7.18;;;3.92;;
32196;SDS011;18697;42.770;23.400;2022-09-30T17:46:26;7.35;;;3.80;;
32196;SDS011;18697;42.770;23.400;2022-09-30T17:48:55;10.20;;;4.28;;
32196;SDS011;18697;42.770;23.400;2022-09-30T17:51:20;4.38;;;3.88;;
32196;SDS011;18697;42.770;23.400;2022-09-30T17:53:46;6.90;;;3.72;;
32196;SDS011;18697;42.770;23.400;2022-09-30T17:56:13;4.45;;;3.45;;
32196;SDS011;18697;42.770;23.400;2022-09-30T17:58:41;6.57;;;3.38;;
32196;SDS011;18697;42.770;23.400;2022-09-30T18:01:11;5.30;;;4.00;;
32196;SDS011;18697;42.770;23.400;2022-09-30T18:03:37;7.38;;;4.10;;
32196;SDS011;18697;42.770;23.400;2022-09-30T18:06:04;5.57;;;4.00;;
32196;SDS011;18697;42.770;23.400;2022-09-30T18:08:30;10.13;;;4.55;;
32196;SDS011;18697;42.770;23.400;2022-09-30T18:10:55;7.75;;;4.53;;
32196;SDS011;18697;42.770;23.400;2022-09-30T18:13:24;9.75;;;3.70;;
32196;SDS011;18697;42.770;23.400;2022-09-30T18:15:50;7.72;;;4.22;;
32196;SDS011;18697;42.770;23.400;2022-09-30T18:18:16;8.05;;;4.10;;
32196;SDS011;18697;42.770;23.400;2022-09-30T18:20:42;7.68;;;3.70;;
32196;SDS011;18697;42.770;23.400;2022-09-30T18:23:09;8.13;;;4.93;;
32196;SDS011;18697;42.770;23.400;2022-09-30T18:25:35;12.60;;;5.43;;
32196;SDS011;18697;42.770;23.400;2022-09-30T18:28:03;12.90;;;7.68;;
32196;SDS011;18697;42.770;23.400;2022-09-30T18:30:32;12.98;;;7.60;;
32196;SDS011;18697;42.770;23.400;2022-09-30T18:32:58;11.18;;;7.22;;
32196;SDS011;18697;42.770;23.400;2022-09-30T18:35:24;7.78;;;4.45;;
32196;SDS011;18697;42.770;23.400;2022-09-30T18:37:50;9.88;;;5.00;;
32196;SDS011;18697;42.770;23.400;2022-09-30T18:40:17;7.18;;;4.68;;